sensor_id;sensor_type;location;lat;lon;timestamp;temperature;humidity
35607;DHT22;21729;58.392;15.656;2023-03-14T00:00:16;7.00;99.90
35607;DHT22;21729;58.392;15.656;2023-03-14T00:02:44;7.10;99.90
35607;DHT22;21729;58.392;15.656;2023-03-14T00:05:11;7.10;99.90
35607;DHT22;21729;58.392;15.656;2023-03-14T00:07:39;7.10;99.90
35607;DHT22;21729;58.392;15.656;2023-03-14T00:10:09;7.10;99.90
35607;DHT22;21729;58.392;15.656;2023-03-14T00:12:37;7.20;99.90
35607;DHT22;21729;58.392;15.656;2023-03-14T00:15:06;7.10;99.90
35607;DHT22;21729;58.392;15.656;2023-03-14T00:17:34;7.10;99.90
35607;DHT22;21729;58.392;15.656;2023-03-14T00:20:03;7.10;99.90
35607;DHT22;21729;58.392;15.656;2023-03-14T00:22:34;7.20;99.90
35607;DHT22;21729;58.392;15.656;2023-03-14T00:25:01;7.10;99.90
35607;DHT22;21729;58.392;15.656;2023-03-14T00:27:29;7.10;99.90
35607;DHT22;21729;58.392;15.656;2023-03-14T00:29:56;7.20;99.90
35607;DHT22;21729;58.392;15.656;2023-03-14T00:32:25;7.10;99.90
35607;DHT22;21729;58.392;15.656;2023-03-14T00:34:52;7.10;99.90
35607;DHT22;21729;58.392;15.656;2023-03-14T00:37:19;7.10;99.90
35607;DHT22;21729;58.392;15.656;2023-03-14T00:39:46;7.20;99.90
35607;DHT22;21729;58.392;15.656;2023-03-14T00:42:14;7.20;99.90
35607;DHT22;21729;58.392;15.656;2023-03-14T00:44:41;7.20;99.90
35607;DHT22;21729;58.392;15.656;2023-03-14T00:47:10;7.10;99.90
35607;DHT22;21729;58.392;15.656;2023-03-14T00:49:39;7.20;99.90
35607;DHT22;21729;58.392;15.656;2023-03-14T00:52:09;7.20;99.90
35607;DHT22;21729;58.392;15.656;2023-03-14T00:54:36;7.10;99.90
35607;DHT22;21729;58.392;15.656;2023-03-14T00:57:03;7.10;99.90
35607;DHT22;21729;58.392;15.656;2023-03-14T00:59:30;7.20;99.90
35607;DHT22;21729;58.392;15.656;2023-03-14T01:01:58;7.20;99.90
35607;DHT22;21729;58.392;15.656;2023-03-14T01:04:25;7.20;99.90
35607;DHT22;21729;58.392;15.656;2023-03-14T01:06:53;7.20;99.90
35607;DHT22;21729;58.392;15.656;2023-03-14T01:09:20;7.20;99.90
35607;DHT22;21729;58.392;15.656;2023-03-14T01:11:48;7.40;99.90
35607;DHT22;21729;58.392;15.656;2023-03-14T01:14:15;7.30;99.90
35607;DHT22;21729;58.392;15.656;2023-03-14T01:16:42;7.30;99.90
35607;DHT22;21729;58.392;15.656;2023-03-14T01:19:09;7.30;99.90
35607;DHT22;21729;58.392;15.656;2023-03-14T01:21:36;7.30;99.90
35607;DHT22;21729;58.392;15.656;2023-03-14T01:24:06;7.30;99.90
35607;DHT22;21729;58.392;15.656;2023-03-14T01:26:34;7.40;99.90
35607;DHT22;21729;58.392;15.656;2023-03-14T01:29:02;7.30;99.90
35607;DHT22;21729;58.392;15.656;2023-03-14T01:31:29;7.30;99.90
35607;DHT22;21729;58.392;15.656;2023-03-14T01:33:57;7.30;99.90
35607;DHT22;21729;58.392;15.656;2023-03-14T01:36:24;7.30;99.90
35607;DHT22;21729;58.392;15.656;2023-03-14T01:38:51;7.30;99.90
35607;DHT22;21729;58.392;15.656;2023-03-14T01:41:23;7.30;99.90
35607;DHT22;21729;58.392;15.656;2023-03-14T01:43:50;7.30;99.90
35607;DHT22;21729;58.392;15.656;2023-03-14T01:46:28;7.30;99.90
35607;DHT22;21729;58.392;15.656;2023-03-14T01:49:04;7.40;99.90
35607;DHT22;21729;58.392;15.656;2023-03-14T01:51:37;7.40;99.90
35607;DHT22;21729;58.392;15.656;2023-03-14T01:54:11;7.30;99.90
35607;DHT22;21729;58.392;15.656;2023-03-14T01:56:41;7.30;99.90
35607;DHT22;21729;58.392;15.656;2023-03-14T01:59:11;7.40;99.90
35607;DHT22;21729;58.392;15.656;2023-03-14T02:01:41;7.30;99.90
35607;DHT22;21729;58.392;15.656;2023-03-14T02:04:10;7.30;99.90
35607;DHT22;21729;58.392;15.656;2023-03-14T02:06:47;7.40;99.90
35607;DHT22;21729;58.392;15.656;2023-03-14T02:09:16;7.40;99.90
35607;DHT22;21729;58.392;15.656;2023-03-14T02:11:45;7.30;99.90
35607;DHT22;21729;58.392;15.656;2023-03-14T02:14:19;7.30;99.90
35607;DHT22;21729;58.392;15.656;2023-03-14T02:16:48;7.30;99.90
35607;DHT22;21729;58.392;15.656;2023-03-14T02:19:18;7.40;99.90
35607;DHT22;21729;58.392;15.656;2023-03-14T02:21:55;7.30;99.90
35607;DHT22;21729;58.392;15.656;2023-03-14T02:24:27;7.20;99.90
35607;DHT22;21729;58.392;15.656;2023-03-14T02:27:10;7.30;99.90
35607;DHT22;21729;58.392;15.656;2023-03-14T02:29:41;7.40;99.90
35607;DHT22;21729;58.392;15.656;2023-03-14T02:32:11;7.40;99.90
35607;DHT22;21729;58.392;15.656;2023-03-14T02:34:38;7.30;99.90
35607;DHT22;21729;58.392;15.656;2023-03-14T02:37:07;7.20;99.90
35607;DHT22;21729;58.392;15.656;2023-03-14T02:39:38;7.20;99.90
35607;DHT22;21729;58.392;15.656;2023-03-14T02:42:17;7.30;99.90
35607;DHT22;21729;58.392;15.656;2023-03-14T02:44:53;7.30;99.90
35607;DHT22;21729;58.392;15.656;2023-03-14T02:47:26;7.30;99.90
35607;DHT22;21729;58.392;15.656;2023-03-14T02:49:58;7.30;99.90
35607;DHT22;21729;58.392;15.656;2023-03-14T02:52:29;7.20;99.90
35607;DHT22;21729;58.392;15.656;2023-03-14T02:54:56;7.20;99.90
35607;DHT22;21729;58.392;15.656;2023-03-14T02:57:25;7.20;99.90
35607;DHT22;21729;58.392;15.656;2023-03-14T02:59:52;7.30;99.90
35607;DHT22;21729;58.392;15.656;2023-03-14T03:02:19;7.20;99.90
35607;DHT22;21729;58.392;15.656;2023-03-14T03:04:46;7.30;99.90
35607;DHT22;21729;58.392;15.656;2023-03-14T03:07:13;7.20;99.90
35607;DHT22;21729;58.392;15.656;2023-03-14T03:09:40;7.20;99.90
35607;DHT22;21729;58.392;15.656;2023-03-14T03:12:08;7.20;99.90
35607;DHT22;21729;58.392;15.656;2023-03-14T03:14:36;7.10;99.90
35607;DHT22;21729;58.392;15.656;2023-03-14T03:17:04;7.10;99.90
35607;DHT22;21729;58.392;15.656;2023-03-14T03:19:31;7.00;99.90
35607;DHT22;21729;58.392;15.656;2023-03-14T03:21:59;7.00;99.90
35607;DHT22;21729;58.392;15.656;2023-03-14T03:24:26;6.90;99.90
35607;DHT22;21729;58.392;15.656;2023-03-14T03:26:53;6.90;99.90
35607;DHT22;21729;58.392;15.656;2023-03-14T03:29:21;6.90;99.90
35607;DHT22;21729;58.392;15.656;2023-03-14T03:31:49;6.90;99.90
35607;DHT22;21729;58.392;15.656;2023-03-14T03:34:17;6.90;99.90
35607;DHT22;21729;58.392;15.656;2023-03-14T03:36:44;6.90;99.90
35607;DHT22;21729;58.392;15.656;2023-03-14T03:39:14;6.80;99.90
35607;DHT22;21729;58.392;15.656;2023-03-14T03:41:41;6.70;99.90
35607;DHT22;21729;58.392;15.656;2023-03-14T03:44:08;6.60;99.90
35607;DHT22;21729;58.392;15.656;2023-03-14T03:46:35;6.60;1.00
35607;DHT22;21729;58.392;15.656;2023-03-14T03:49:04;6.50;1.00
35607;DHT22;21729;58.392;15.656;2023-03-14T03:51:31;6.50;1.00
35607;DHT22;21729;58.392;15.656;2023-03-14T03:53:58;6.40;1.00
35607;DHT22;21729;58.392;15.656;2023-03-14T03:56:25;6.40;1.00
35607;DHT22;21729;58.392;15.656;2023-03-14T03:58:52;6.40;1.00
35607;DHT22;21729;58.392;15.656;2023-03-14T04:01:19;6.40;1.00
35607;DHT22;21729;58.392;15.656;2023-03-14T04:03:46;6.30;1.00
35607;DHT22;21729;58.392;15.656;2023-03-14T04:06:15;6.30;1.00
35607;DHT22;21729;58.392;15.656;2023-03-14T04:08:42;6.30;1.00
35607;DHT22;21729;58.392;15.656;2023-03-14T04:11:09;6.30;1.00
35607;DHT22;21729;58.392;15.656;2023-03-14T04:13:37;6.30;1.00
35607;DHT22;21729;58.392;15.656;2023-03-14T04:16:11;6.20;1.00
35607;DHT22;21729;58.392;15.656;2023-03-14T04:18:41;6.20;1.00
35607;DHT22;21729;58.392;15.656;2023-03-14T04:21:08;6.20;1.00
35607;DHT22;21729;58.392;15.656;2023-03-14T04:23:36;6.20;1.00
35607;DHT22;21729;58.392;15.656;2023-03-14T04:26:04;6.10;1.00
35607;DHT22;21729;58.392;15.656;2023-03-14T04:28:31;6.10;1.00
35607;DHT22;21729;58.392;15.656;2023-03-14T04:30:58;6.10;1.00
35607;DHT22;21729;58.392;15.656;2023-03-14T04:33:25;6.10;1.00
35607;DHT22;21729;58.392;15.656;2023-03-14T04:35:54;6.10;1.00
35607;DHT22;21729;58.392;15.656;2023-03-14T04:38:21;6.10;3.20
35607;DHT22;21729;58.392;15.656;2023-03-14T04:40:49;6.10;19.20
35607;DHT22;21729;58.392;15.656;2023-03-14T04:43:17;6.10;16.80
35607;DHT22;21729;58.392;15.656;2023-03-14T04:45:44;6.00;19.10
35607;DHT22;21729;58.392;15.656;2023-03-14T04:48:11;6.00;34.80
35607;DHT22;21729;58.392;15.656;2023-03-14T04:50:39;6.00;37.70
35607;DHT22;21729;58.392;15.656;2023-03-14T04:53:06;6.00;54.60
35607;DHT22;21729;58.392;15.656;2023-03-14T04:55:34;6.00;68.00
35607;DHT22;21729;58.392;15.656;2023-03-14T04:58:02;6.00;78.50
35607;DHT22;21729;58.392;15.656;2023-03-14T05:00:30;6.00;84.50
35607;DHT22;21729;58.392;15.656;2023-03-14T05:02:57;6.00;94.20
35607;DHT22;21729;58.392;15.656;2023-03-14T05:05:25;6.00;94.60
35607;DHT22;21729;58.392;15.656;2023-03-14T05:07:52;5.90;99.90
35607;DHT22;21729;58.392;15.656;2023-03-14T05:10:19;5.90;99.90
35607;DHT22;21729;58.392;15.656;2023-03-14T05:12:46;5.80;99.90
35607;DHT22;21729;58.392;15.656;2023-03-14T05:15:15;5.90;99.90
35607;DHT22;21729;58.392;15.656;2023-03-14T05:17:42;5.80;99.90
35607;DHT22;21729;58.392;15.656;2023-03-14T05:20:10;5.80;99.90
35607;DHT22;21729;58.392;15.656;2023-03-14T05:22:38;5.80;99.90
35607;DHT22;21729;58.392;15.656;2023-03-14T05:25:06;5.80;99.90
35607;DHT22;21729;58.392;15.656;2023-03-14T05:27:34;5.80;99.90
35607;DHT22;21729;58.392;15.656;2023-03-14T05:30:01;5.70;99.90
35607;DHT22;21729;58.392;15.656;2023-03-14T05:32:30;5.70;99.90
35607;DHT22;21729;58.392;15.656;2023-03-14T05:34:57;5.80;99.90
35607;DHT22;21729;58.392;15.656;2023-03-14T05:37:25;5.70;99.90
35607;DHT22;21729;58.392;15.656;2023-03-14T05:39:52;5.70;99.90
35607;DHT22;21729;58.392;15.656;2023-03-14T05:42:19;5.70;99.90
35607;DHT22;21729;58.392;15.656;2023-03-14T05:44:47;5.70;99.90
35607;DHT22;21729;58.392;15.656;2023-03-14T05:47:14;5.70;99.90
35607;DHT22;21729;58.392;15.656;2023-03-14T05:49:42;5.70;99.90
35607;DHT22;21729;58.392;15.656;2023-03-14T05:52:09;5.60;99.90
35607;DHT22;21729;58.392;15.656;2023-03-14T05:54:37;5.70;99.90
35607;DHT22;21729;58.392;15.656;2023-03-14T05:57:04;5.60;99.90
35607;DHT22;21729;58.392;15.656;2023-03-14T05:59:31;5.60;99.90
35607;DHT22;21729;58.392;15.656;2023-03-14T06:01:58;5.80;99.90
35607;DHT22;21729;58.392;15.656;2023-03-14T06:04:25;5.70;99.90
35607;DHT22;21729;58.392;15.656;2023-03-14T06:06:54;5.60;99.90
35607;DHT22;21729;58.392;15.656;2023-03-14T06:09:21;5.70;99.90
35607;DHT22;21729;58.392;15.656;2023-03-14T06:11:49;5.70;99.90
35607;DHT22;21729;58.392;15.656;2023-03-14T06:14:16;5.60;99.90
35607;DHT22;21729;58.392;15.656;2023-03-14T06:16:43;5.60;99.90
35607;DHT22;21729;58.392;15.656;2023-03-14T06:19:11;5.60;99.90
35607;DHT22;21729;58.392;15.656;2023-03-14T06:21:38;5.50;99.90
35607;DHT22;21729;58.392;15.656;2023-03-14T06:24:07;5.50;99.90
35607;DHT22;21729;58.392;15.656;2023-03-14T06:26:34;5.50;99.90
35607;DHT22;21729;58.392;15.656;2023-03-14T06:29:01;5.50;99.90
35607;DHT22;21729;58.392;15.656;2023-03-14T06:31:29;5.40;99.90
35607;DHT22;21729;58.392;15.656;2023-03-14T06:33:56;5.40;99.90
35607;DHT22;21729;58.392;15.656;2023-03-14T06:36:24;5.30;99.90
35607;DHT22;21729;58.392;15.656;2023-03-14T06:38:51;5.20;99.90
35607;DHT22;21729;58.392;15.656;2023-03-14T06:41:20;5.20;99.90
35607;DHT22;21729;58.392;15.656;2023-03-14T06:43:49;5.10;99.90
35607;DHT22;21729;58.392;15.656;2023-03-14T06:46:16;5.10;99.90
35607;DHT22;21729;58.392;15.656;2023-03-14T06:48:43;5.10;99.90
35607;DHT22;21729;58.392;15.656;2023-03-14T06:51:11;5.10;99.90
35607;DHT22;21729;58.392;15.656;2023-03-14T06:53:38;5.00;99.90
35607;DHT22;21729;58.392;15.656;2023-03-14T06:56:06;4.90;99.90
35607;DHT22;21729;58.392;15.656;2023-03-14T06:58:35;4.90;56.30
35607;DHT22;21729;58.392;15.656;2023-03-14T07:01:02;4.80;54.50
35607;DHT22;21729;58.392;15.656;2023-03-14T07:03:29;4.70;34.60
35607;DHT22;21729;58.392;15.656;2023-03-14T07:05:59;4.70;20.40
35607;DHT22;21729;58.392;15.656;2023-03-14T07:08:26;4.70;13.10
35607;DHT22;21729;58.392;15.656;2023-03-14T07:10:56;4.70;16.20
35607;DHT22;21729;58.392;15.656;2023-03-14T07:13:23;4.70;1.00
35607;DHT22;21729;58.392;15.656;2023-03-14T07:15:51;4.80;1.00
35607;DHT22;21729;58.392;15.656;2023-03-14T07:18:18;4.80;1.00
35607;DHT22;21729;58.392;15.656;2023-03-14T07:20:46;4.80;1.00
35607;DHT22;21729;58.392;15.656;2023-03-14T07:23:13;4.70;1.00
35607;DHT22;21729;58.392;15.656;2023-03-14T07:25:40;4.80;1.00
35607;DHT22;21729;58.392;15.656;2023-03-14T07:28:08;4.80;1.00
35607;DHT22;21729;58.392;15.656;2023-03-14T07:30:35;4.80;1.00
35607;DHT22;21729;58.392;15.656;2023-03-14T07:33:04;4.70;1.00
35607;DHT22;21729;58.392;15.656;2023-03-14T07:35:31;4.60;1.00
35607;DHT22;21729;58.392;15.656;2023-03-14T07:37:58;4.60;1.00
35607;DHT22;21729;58.392;15.656;2023-03-14T07:40:25;4.60;1.00
35607;DHT22;21729;58.392;15.656;2023-03-14T07:42:52;4.50;1.00
35607;DHT22;21729;58.392;15.656;2023-03-14T07:45:20;4.50;1.00
35607;DHT22;21729;58.392;15.656;2023-03-14T07:47:47;4.50;1.00
35607;DHT22;21729;58.392;15.656;2023-03-14T07:50:16;4.60;1.00
35607;DHT22;21729;58.392;15.656;2023-03-14T07:52:45;4.50;1.00
35607;DHT22;21729;58.392;15.656;2023-03-14T07:55:12;4.60;1.00
35607;DHT22;21729;58.392;15.656;2023-03-14T07:57:39;4.60;1.00
35607;DHT22;21729;58.392;15.656;2023-03-14T08:00:08;4.60;1.00
35607;DHT22;21729;58.392;15.656;2023-03-14T08:02:35;4.60;1.00
35607;DHT22;21729;58.392;15.656;2023-03-14T08:05:03;4.80;1.00
35607;DHT22;21729;58.392;15.656;2023-03-14T08:07:32;5.10;1.00
35607;DHT22;21729;58.392;15.656;2023-03-14T08:09:59;5.10;1.00
35607;DHT22;21729;58.392;15.656;2023-03-14T08:12:26;5.20;1.00
35607;DHT22;21729;58.392;15.656;2023-03-14T08:14:53;5.20;1.00
35607;DHT22;21729;58.392;15.656;2023-03-14T08:17:20;5.20;1.00
35607;DHT22;21729;58.392;15.656;2023-03-14T08:19:47;5.00;1.00
35607;DHT22;21729;58.392;15.656;2023-03-14T08:22:14;5.10;1.00
35607;DHT22;21729;58.392;15.656;2023-03-14T08:24:43;5.10;1.00
35607;DHT22;21729;58.392;15.656;2023-03-14T08:27:10;5.00;1.00
35607;DHT22;21729;58.392;15.656;2023-03-14T08:29:37;5.10;1.00
35607;DHT22;21729;58.392;15.656;2023-03-14T08:32:06;5.10;1.00
35607;DHT22;21729;58.392;15.656;2023-03-14T08:34:33;5.20;1.00
35607;DHT22;21729;58.392;15.656;2023-03-14T08:37:00;5.20;1.00
35607;DHT22;21729;58.392;15.656;2023-03-14T08:39:27;5.20;1.00
35607;DHT22;21729;58.392;15.656;2023-03-14T08:42:01;5.20;1.00
35607;DHT22;21729;58.392;15.656;2023-03-14T08:44:29;5.30;99.90
35607;DHT22;21729;58.392;15.656;2023-03-14T08:46:56;5.20;99.90
35607;DHT22;21729;58.392;15.656;2023-03-14T08:49:24;5.20;99.90
35607;DHT22;21729;58.392;15.656;2023-03-14T08:51:51;5.20;99.90
35607;DHT22;21729;58.392;15.656;2023-03-14T08:54:18;5.20;99.90
35607;DHT22;21729;58.392;15.656;2023-03-14T08:56:45;5.20;99.90
35607;DHT22;21729;58.392;15.656;2023-03-14T08:59:13;5.20;99.90
35607;DHT22;21729;58.392;15.656;2023-03-14T09:01:40;5.20;99.90
35607;DHT22;21729;58.392;15.656;2023-03-14T09:04:08;5.20;99.90
35607;DHT22;21729;58.392;15.656;2023-03-14T09:06:35;5.30;99.90
35607;DHT22;21729;58.392;15.656;2023-03-14T09:09:02;5.40;99.90
35607;DHT22;21729;58.392;15.656;2023-03-14T09:11:30;5.50;99.90
35607;DHT22;21729;58.392;15.656;2023-03-14T09:13:57;5.70;99.90
35607;DHT22;21729;58.392;15.656;2023-03-14T09:16:25;5.80;99.90
35607;DHT22;21729;58.392;15.656;2023-03-14T09:18:53;5.70;99.90
35607;DHT22;21729;58.392;15.656;2023-03-14T09:21:20;5.70;99.90
35607;DHT22;21729;58.392;15.656;2023-03-14T09:23:47;5.60;99.90
35607;DHT22;21729;58.392;15.656;2023-03-14T09:26:14;5.60;99.90
35607;DHT22;21729;58.392;15.656;2023-03-14T09:28:41;5.40;99.90
35607;DHT22;21729;58.392;15.656;2023-03-14T09:31:10;5.60;99.90
35607;DHT22;21729;58.392;15.656;2023-03-14T09:33:39;5.50;99.90
35607;DHT22;21729;58.392;15.656;2023-03-14T09:36:07;5.50;99.90
35607;DHT22;21729;58.392;15.656;2023-03-14T09:38:34;5.50;99.90
35607;DHT22;21729;58.392;15.656;2023-03-14T09:41:03;5.60;99.90
35607;DHT22;21729;58.392;15.656;2023-03-14T09:43:39;5.60;99.90
35607;DHT22;21729;58.392;15.656;2023-03-14T09:46:09;5.60;99.90
35607;DHT22;21729;58.392;15.656;2023-03-14T09:48:39;5.50;99.90
35607;DHT22;21729;58.392;15.656;2023-03-14T09:51:12;5.50;99.90
35607;DHT22;21729;58.392;15.656;2023-03-14T09:53:42;5.60;99.90
35607;DHT22;21729;58.392;15.656;2023-03-14T09:56:13;5.50;99.90
35607;DHT22;21729;58.392;15.656;2023-03-14T09:58:43;5.60;99.90
35607;DHT22;21729;58.392;15.656;2023-03-14T10:01:14;5.50;99.90
35607;DHT22;21729;58.392;15.656;2023-03-14T10:03:45;5.60;99.90
35607;DHT22;21729;58.392;15.656;2023-03-14T10:06:13;5.80;99.90
35607;DHT22;21729;58.392;15.656;2023-03-14T10:08:40;5.80;99.90
35607;DHT22;21729;58.392;15.656;2023-03-14T10:11:14;5.60;99.90
35607;DHT22;21729;58.392;15.656;2023-03-14T10:14:03;5.80;99.90
35607;DHT22;21729;58.392;15.656;2023-03-14T10:16:32;5.80;99.90
35607;DHT22;21729;58.392;15.656;2023-03-14T10:19:07;5.80;99.90
35607;DHT22;21729;58.392;15.656;2023-03-14T10:21:39;6.10;99.90
35607;DHT22;21729;58.392;15.656;2023-03-14T10:24:16;5.90;99.90
35607;DHT22;21729;58.392;15.656;2023-03-14T10:26:48;5.80;99.90
35607;DHT22;21729;58.392;15.656;2023-03-14T10:29:15;5.90;99.90
35607;DHT22;21729;58.392;15.656;2023-03-14T10:31:48;5.80;99.90
35607;DHT22;21729;58.392;15.656;2023-03-14T10:34:23;6.00;99.90
35607;DHT22;21729;58.392;15.656;2023-03-14T10:36:54;6.00;99.90
35607;DHT22;21729;58.392;15.656;2023-03-14T10:39:31;6.00;99.90
35607;DHT22;21729;58.392;15.656;2023-03-14T10:42:05;6.00;99.90
35607;DHT22;21729;58.392;15.656;2023-03-14T10:44:34;6.00;99.90
35607;DHT22;21729;58.392;15.656;2023-03-14T10:47:03;6.00;99.90
35607;DHT22;21729;58.392;15.656;2023-03-14T10:49:34;6.10;99.90
35607;DHT22;21729;58.392;15.656;2023-03-14T10:52:12;6.10;99.90
35607;DHT22;21729;58.392;15.656;2023-03-14T10:54:40;6.30;99.90
35607;DHT22;21729;58.392;15.656;2023-03-14T10:57:11;6.30;99.90
35607;DHT22;21729;58.392;15.656;2023-03-14T10:59:40;6.50;99.90
35607;DHT22;21729;58.392;15.656;2023-03-14T11:02:21;6.30;99.90
35607;DHT22;21729;58.392;15.656;2023-03-14T11:05:04;6.60;99.90
35607;DHT22;21729;58.392;15.656;2023-03-14T11:07:39;6.80;99.90
35607;DHT22;21729;58.392;15.656;2023-03-14T11:10:14;7.00;99.90
35607;DHT22;21729;58.392;15.656;2023-03-14T11:12:54;6.80;99.90
35607;DHT22;21729;58.392;15.656;2023-03-14T11:15:32;6.70;99.90
35607;DHT22;21729;58.392;15.656;2023-03-14T11:21:09;7.10;99.90
35607;DHT22;21729;58.392;15.656;2023-03-14T11:23:42;7.20;73.40
35607;DHT22;21729;58.392;15.656;2023-03-14T11:26:23;6.90;40.80
35607;DHT22;21729;58.392;15.656;2023-03-14T11:28:57;6.70;33.90
35607;DHT22;21729;58.392;15.656;2023-03-14T11:31:27;6.40;99.90
35607;DHT22;21729;58.392;15.656;2023-03-14T11:33:57;6.20;99.90
35607;DHT22;21729;58.392;15.656;2023-03-14T11:36:32;6.20;99.90
35607;DHT22;21729;58.392;15.656;2023-03-14T11:39:00;6.10;99.90
35607;DHT22;21729;58.392;15.656;2023-03-14T11:41:31;6.10;99.90
35607;DHT22;21729;58.392;15.656;2023-03-14T11:44:03;6.00;99.90
35607;DHT22;21729;58.392;15.656;2023-03-14T11:46:34;5.70;99.90
35607;DHT22;21729;58.392;15.656;2023-03-14T11:49:06;5.50;99.90
35607;DHT22;21729;58.392;15.656;2023-03-14T11:51:36;5.40;99.90
35607;DHT22;21729;58.392;15.656;2023-03-14T11:54:13;5.50;99.90
35607;DHT22;21729;58.392;15.656;2023-03-14T11:56:46;5.40;99.90
35607;DHT22;21729;58.392;15.656;2023-03-14T11:59:19;5.40;99.90
35607;DHT22;21729;58.392;15.656;2023-03-14T12:01:54;5.30;99.90
35607;DHT22;21729;58.392;15.656;2023-03-14T12:07:18;5.40;99.90
35607;DHT22;21729;58.392;15.656;2023-03-14T12:09:47;5.50;99.90
35607;DHT22;21729;58.392;15.656;2023-03-14T12:12:19;5.40;99.90
35607;DHT22;21729;58.392;15.656;2023-03-14T12:14:53;5.40;99.90
35607;DHT22;21729;58.392;15.656;2023-03-14T12:17:22;5.40;99.90
35607;DHT22;21729;58.392;15.656;2023-03-14T12:20:01;5.30;99.90
35607;DHT22;21729;58.392;15.656;2023-03-14T12:22:34;5.20;99.90
35607;DHT22;21729;58.392;15.656;2023-03-14T12:25:13;5.20;99.90
35607;DHT22;21729;58.392;15.656;2023-03-14T12:27:44;5.20;99.90
35607;DHT22;21729;58.392;15.656;2023-03-14T12:30:25;5.20;99.90
35607;DHT22;21729;58.392;15.656;2023-03-14T12:33:20;5.30;99.90
35607;DHT22;21729;58.392;15.656;2023-03-14T12:35:50;5.20;99.90
35607;DHT22;21729;58.392;15.656;2023-03-14T12:38:24;5.30;99.90
35607;DHT22;21729;58.392;15.656;2023-03-14T12:40:57;5.30;99.90
35607;DHT22;21729;58.392;15.656;2023-03-14T12:43:27;5.40;99.90
35607;DHT22;21729;58.392;15.656;2023-03-14T12:46:09;5.40;99.90
35607;DHT22;21729;58.392;15.656;2023-03-14T12:48:41;5.40;99.90
35607;DHT22;21729;58.392;15.656;2023-03-14T12:51:13;5.40;99.90
35607;DHT22;21729;58.392;15.656;2023-03-14T12:54:06;5.40;99.90
35607;DHT22;21729;58.392;15.656;2023-03-14T12:56:50;5.30;99.90
35607;DHT22;21729;58.392;15.656;2023-03-14T12:59:32;5.20;99.90
35607;DHT22;21729;58.392;15.656;2023-03-14T13:02:02;5.00;99.90
35607;DHT22;21729;58.392;15.656;2023-03-14T13:04:33;5.00;99.90
35607;DHT22;21729;58.392;15.656;2023-03-14T13:07:01;5.00;99.90
35607;DHT22;21729;58.392;15.656;2023-03-14T13:09:53;5.00;99.90
35607;DHT22;21729;58.392;15.656;2023-03-14T13:12:38;5.10;99.90
35607;DHT22;21729;58.392;15.656;2023-03-14T13:15:17;5.10;99.90
35607;DHT22;21729;58.392;15.656;2023-03-14T13:17:46;5.30;99.90
35607;DHT22;21729;58.392;15.656;2023-03-14T13:20:19;5.10;99.90
35607;DHT22;21729;58.392;15.656;2023-03-14T13:22:49;5.00;99.90
35607;DHT22;21729;58.392;15.656;2023-03-14T13:25:18;5.00;99.90
35607;DHT22;21729;58.392;15.656;2023-03-14T13:27:47;5.00;99.90
35607;DHT22;21729;58.392;15.656;2023-03-14T13:30:20;4.90;99.90
35607;DHT22;21729;58.392;15.656;2023-03-14T13:32:49;4.70;99.90
35607;DHT22;21729;58.392;15.656;2023-03-14T13:35:18;4.80;99.90
35607;DHT22;21729;58.392;15.656;2023-03-14T13:37:46;4.90;99.90
35607;DHT22;21729;58.392;15.656;2023-03-14T13:40:30;4.90;99.90
35607;DHT22;21729;58.392;15.656;2023-03-14T13:43:10;5.00;99.90
35607;DHT22;21729;58.392;15.656;2023-03-14T13:45:50;4.80;99.90
35607;DHT22;21729;58.392;15.656;2023-03-14T13:48:19;4.80;99.90
35607;DHT22;21729;58.392;15.656;2023-03-14T13:50:51;4.90;99.90
35607;DHT22;21729;58.392;15.656;2023-03-14T13:53:18;4.80;99.90
35607;DHT22;21729;58.392;15.656;2023-03-14T13:55:47;4.70;99.90
35607;DHT22;21729;58.392;15.656;2023-03-14T13:58:22;4.70;99.90
35607;DHT22;21729;58.392;15.656;2023-03-14T14:01:01;4.40;99.90
35607;DHT22;21729;58.392;15.656;2023-03-14T14:03:32;4.40;99.90
35607;DHT22;21729;58.392;15.656;2023-03-14T14:06:00;4.30;99.90
35607;DHT22;21729;58.392;15.656;2023-03-14T14:08:27;4.30;99.90
35607;DHT22;21729;58.392;15.656;2023-03-14T14:10:59;4.30;99.90
35607;DHT22;21729;58.392;15.656;2023-03-14T14:13:30;4.30;99.90
35607;DHT22;21729;58.392;15.656;2023-03-14T14:16:00;4.40;99.90
35607;DHT22;21729;58.392;15.656;2023-03-14T14:18:31;4.50;99.90
35607;DHT22;21729;58.392;15.656;2023-03-14T14:20:59;4.20;99.90
35607;DHT22;21729;58.392;15.656;2023-03-14T14:23:28;4.20;99.90
35607;DHT22;21729;58.392;15.656;2023-03-14T14:25:59;4.20;99.90
35607;DHT22;21729;58.392;15.656;2023-03-14T14:28:28;4.10;99.90
35607;DHT22;21729;58.392;15.656;2023-03-14T14:31:17;4.00;99.90
35607;DHT22;21729;58.392;15.656;2023-03-14T14:33:46;3.80;99.90
35607;DHT22;21729;58.392;15.656;2023-03-14T14:36:21;3.70;99.90
35607;DHT22;21729;58.392;15.656;2023-03-14T14:38:50;3.70;99.90
35607;DHT22;21729;58.392;15.656;2023-03-14T14:41:20;3.70;99.90
35607;DHT22;21729;58.392;15.656;2023-03-14T14:43:47;3.70;99.90
35607;DHT22;21729;58.392;15.656;2023-03-14T14:46:18;3.70;99.90
35607;DHT22;21729;58.392;15.656;2023-03-14T14:48:46;3.60;99.90
35607;DHT22;21729;58.392;15.656;2023-03-14T14:51:24;3.60;99.90
35607;DHT22;21729;58.392;15.656;2023-03-14T14:54:04;3.50;99.90
35607;DHT22;21729;58.392;15.656;2023-03-14T14:56:36;3.50;99.90
35607;DHT22;21729;58.392;15.656;2023-03-14T14:59:04;3.50;99.90
35607;DHT22;21729;58.392;15.656;2023-03-14T15:01:34;3.50;99.90
35607;DHT22;21729;58.392;15.656;2023-03-14T15:04:02;3.40;99.90
35607;DHT22;21729;58.392;15.656;2023-03-14T15:06:31;3.30;99.90
35607;DHT22;21729;58.392;15.656;2023-03-14T15:08:58;3.20;99.90
35607;DHT22;21729;58.392;15.656;2023-03-14T15:11:26;3.30;99.90
35607;DHT22;21729;58.392;15.656;2023-03-14T15:13:55;3.30;99.90
35607;DHT22;21729;58.392;15.656;2023-03-14T15:16:25;3.30;99.90
35607;DHT22;21729;58.392;15.656;2023-03-14T15:18:55;3.30;99.90
35607;DHT22;21729;58.392;15.656;2023-03-14T15:21:22;3.30;99.90
35607;DHT22;21729;58.392;15.656;2023-03-14T15:23:49;3.30;99.90
35607;DHT22;21729;58.392;15.656;2023-03-14T15:26:19;3.30;88.60
35607;DHT22;21729;58.392;15.656;2023-03-14T15:28:46;3.30;99.90
35607;DHT22;21729;58.392;15.656;2023-03-14T15:31:17;3.30;99.90
35607;DHT22;21729;58.392;15.656;2023-03-14T15:33:45;3.20;97.10
35607;DHT22;21729;58.392;15.656;2023-03-14T15:36:31;3.20;17.80
35607;DHT22;21729;58.392;15.656;2023-03-14T15:38:59;3.20;46.80
35607;DHT22;21729;58.392;15.656;2023-03-14T15:41:27;3.30;11.80
35607;DHT22;21729;58.392;15.656;2023-03-14T15:43:54;3.30;1.00
35607;DHT22;21729;58.392;15.656;2023-03-14T15:46:23;3.30;71.00
35607;DHT22;21729;58.392;15.656;2023-03-14T15:48:51;3.30;31.00
35607;DHT22;21729;58.392;15.656;2023-03-14T15:51:18;3.20;17.60
35607;DHT22;21729;58.392;15.656;2023-03-14T15:53:46;3.10;1.00